Time;durP1;ratioP1;P1;durP2;ratioP2;P2;SDS_P1;SDS_P2;PMS_P1;PMS_P2;Temp;Humidity;BMP_temperature;BMP_pressure;BME280_temperature;BME280_humidity;BME280_pressure;Samples;Min_cycle;Max_cycle;Signal;HPM_P1;HPM_P2
2021/12/19 00:00:20;;;;;;;31.47;11.77;;;8.20;99.90;;;;;;4947407;28;38256;-77
2021/12/19 00:10:26;;;;;;;19.30;9.50;;;7.90;99.90;;;;;;4951244;28;39272;-76
2021/12/19 00:12:53;;;;;;;20.67;11.20;;;7.90;99.90;;;;;;4953423;28;36986;-75
2021/12/19 00:15:20;;;;;;;19.13;11.30;;;7.90;99.90;;;;;;4947381;28;39613;-77
2021/12/19 00:17:46;;;;;;;22.00;12.00;;;7.90;99.90;;;;;;4944183;28;39021;-76
2021/12/19 00:20:12;;;;;;;17.13;11.03;;;7.90;99.90;;;;;;4950657;28;37304;-77
2021/12/19 00:22:39;;;;;;;18.67;10.20;;;7.80;99.90;;;;;;4951944;28;37175;-77
2021/12/19 00:25:06;;;;;;;13.00;9.07;;;7.70;99.90;;;;;;4943023;28;37849;-76
2021/12/19 00:27:32;;;;;;;13.87;9.20;;;7.70;99.90;;;;;;4950653;28;39261;-77
2021/12/19 00:29:59;;;;;;;15.73;10.90;;;7.60;99.90;;;;;;4950437;28;39475;-76
2021/12/19 00:32:25;;;;;;;16.53;10.83;;;7.60;99.90;;;;;;4957648;28;37130;-77
2021/12/19 00:34:51;;;;;;;17.20;11.27;;;7.60;99.90;;;;;;4953687;28;38313;-76
2021/12/19 00:37:22;;;;;;;14.50;10.10;;;7.50;99.90;;;;;;4959131;28;40277;-77
2021/12/19 00:39:49;;;;;;;16.23;11.63;;;7.60;99.90;;;;;;4946147;28;38623;-76
2021/12/19 00:42:26;;;;;;;19.33;12.73;;;7.50;99.90;;;;;;4949052;28;40937;-76
2021/12/19 00:44:53;;;;;;;17.93;12.37;;;7.50;99.90;;;;;;4953255;28;38909;-76
2021/12/19 00:47:19;;;;;;;26.90;14.77;;;7.50;99.90;;;;;;4964540;28;37783;-75
2021/12/19 00:49:45;;;;;;;26.10;15.43;;;7.40;99.90;;;;;;4951034;28;38367;-77
2021/12/19 00:52:11;;;;;;;25.80;14.73;;;7.40;99.90;;;;;;4949439;28;37541;-77
2021/12/19 00:54:37;;;;;;;24.00;14.67;;;7.40;99.90;;;;;;4949513;28;37435;-76
2021/12/19 00:57:04;;;;;;;26.50;15.60;;;7.40;99.90;;;;;;4961074;28;39201;-76
2021/12/19 00:59:30;;;;;;;28.83;15.27;;;7.40;99.90;;;;;;4954314;28;39558;-75
2021/12/19 01:01:56;;;;;;;24.77;13.67;;;7.40;99.90;;;;;;4957251;28;36566;-75
2021/12/19 01:04:22;;;;;;;18.90;11.80;;;7.40;99.90;;;;;;4950478;28;38367;-75
2021/12/19 01:06:48;;;;;;;22.20;12.40;;;7.40;99.90;;;;;;4951022;28;39835;-75
2021/12/19 01:09:15;;;;;;;25.10;13.73;;;7.40;99.90;;;;;;4952359;28;38217;-76
2021/12/19 01:11:41;;;;;;;20.87;12.57;;;7.50;99.90;;;;;;4957979;28;36562;-76
2021/12/19 01:14:08;;;;;;;18.60;10.93;;;7.40;99.90;;;;;;4955600;28;39121;-75
2021/12/19 01:16:34;;;;;;;19.27;11.07;;;7.40;99.90;;;;;;4952756;28;39861;-76
2021/12/19 01:19:00;;;;;;;11.60;6.90;;;7.40;99.90;;;;;;4965014;28;38651;-75
2021/12/19 01:21:27;;;;;;;12.13;6.97;;;7.30;99.90;;;;;;4955500;28;48503;-76
2021/12/19 01:23:53;;;;;;;9.90;6.50;;;7.20;99.90;;;;;;4961520;28;38419;-76
2021/12/19 01:26:19;;;;;;;12.13;6.40;;;7.20;99.90;;;;;;4955800;28;39332;-76
2021/12/19 01:28:45;;;;;;;9.87;7.00;;;7.10;99.90;;;;;;4954603;28;39889;-76
2021/12/19 01:31:12;;;;;;;10.13;6.37;;;7.10;99.90;;;;;;4963447;28;37446;-76
2021/12/19 01:33:38;;;;;;;10.93;6.30;;;7.20;99.90;;;;;;4960975;28;37538;-76
2021/12/19 01:36:05;;;;;;;13.73;7.33;;;7.20;99.90;;;;;;4951548;28;37530;-75
2021/12/19 01:38:31;;;;;;;17.77;10.10;;;7.20;99.90;;;;;;4961277;28;38949;-77
2021/12/19 01:40:58;;;;;;;18.53;10.13;;;7.30;99.90;;;;;;4956978;28;36942;-77
2021/12/19 01:43:25;;;;;;;18.13;11.10;;;7.30;99.90;;;;;;4953880;28;38241;-76
2021/12/19 01:45:53;;;;;;;24.67;12.10;;;7.40;99.90;;;;;;4958653;28;39705;-76
2021/12/19 01:48:19;;;;;;;23.43;12.17;;;7.40;99.90;;;;;;4966944;28;39961;-77
2021/12/19 01:50:46;;;;;;;14.97;9.60;;;7.50;99.90;;;;;;4955263;28;36947;-76
2021/12/19 01:53:13;;;;;;;20.13;11.20;;;7.40;99.90;;;;;;4969127;28;39701;-76
2021/12/19 01:55:44;;;;;;;29.60;11.90;;;7.50;99.90;;;;;;4953555;28;39482;-76
2021/12/19 01:58:12;;;;;;;24.37;11.47;;;7.50;99.90;;;;;;4955790;28;38744;-76
2021/12/19 02:00:51;;;;;;;17.23;10.43;;;7.60;99.90;;;;;;4964765;28;37694;-76
2021/12/19 02:03:18;;;;;;;22.70;10.70;;;7.60;99.90;;;;;;4950816;28;40994;-77
2021/12/19 02:05:45;;;;;;;21.50;11.10;;;7.70;99.90;;;;;;4966685;28;40786;-76
2021/12/19 02:08:12;;;;;;;29.07;14.47;;;7.60;99.90;;;;;;4955109;28;39666;-76
2021/12/19 02:10:39;;;;;;;20.27;11.27;;;7.80;99.90;;;;;;4964342;28;36638;-76
2021/12/19 02:13:07;;;;;;;30.33;14.87;;;7.70;99.90;;;;;;4947214;28;38873;-76
2021/12/19 02:15:35;;;;;;;21.77;13.00;;;7.70;99.90;;;;;;4964464;28;39328;-76
2021/12/19 02:18:09;;;;;;;21.93;13.43;;;7.80;99.90;;;;;;4950643;28;38058;-75
2021/12/19 02:20:43;;;;;;;23.70;13.47;;;7.80;99.90;;;;;;4965284;28;48729;-76
2021/12/19 02:23:11;;;;;;;23.50;12.83;;;7.80;99.90;;;;;;4948512;28;38554;-76
2021/12/19 02:25:38;;;;;;;27.07;12.77;;;7.90;99.90;;;;;;4953260;28;40097;-76
2021/12/19 02:28:05;;;;;;;26.30;13.87;;;7.90;99.90;;;;;;4945617;28;39244;-76
2021/12/19 02:30:31;;;;;;;22.50;11.77;;;7.90;99.90;;;;;;4964032;28;38151;-76
2021/12/19 02:32:57;;;;;;;19.40;12.47;;;7.90;99.90;;;;;;4970348;28;37970;-77
2021/12/19 02:35:31;;;;;;;17.70;10.60;;;7.90;99.90;;;;;;4960074;28;37765;-76
2021/12/19 02:48:09;;;;;;;24.10;12.85;;;7.90;99.90;;;;;;4955388;28;48973;-76
2021/12/19 02:48:56;;;;;;;18.97;10.10;;;7.90;99.90;;;;;;4956064;28;38918;-77
2021/12/19 02:51:23;;;;;;;13.87;7.40;;;8.00;99.90;;;;;;4950788;28;37900;-77
2021/12/19 02:53:49;;;;;;;11.20;6.70;;;8.10;99.90;;;;;;4957520;28;39910;-77
2021/12/19 02:56:15;;;;;;;16.27;7.73;;;8.10;99.90;;;;;;4961570;28;39028;-76
2021/12/19 02:58:43;;;;;;;18.23;8.03;;;8.20;99.90;;;;;;4960435;28;39279;-75
2021/12/19 03:01:14;;;;;;;12.40;6.57;;;8.20;99.90;;;;;;4967208;28;37108;-75
2021/12/19 03:03:41;;;;;;;10.13;4.93;;;8.20;99.90;;;;;;4952640;28;38953;-75
2021/12/19 03:06:07;;;;;;;10.67;4.60;;;8.20;99.90;;;;;;4954179;28;38865;-76
2021/12/19 03:08:34;;;;;;;8.53;4.37;;;8.20;99.90;;;;;;4951726;28;37037;-75
2021/12/19 03:19:35;;;;;;;17.47;7.10;;;8.30;99.90;;;;;;4951445;28;49350;-76
2021/12/19 03:22:01;;;;;;;22.83;9.33;;;8.40;99.90;;;;;;4957805;28;36508;-76
2021/12/19 03:24:27;;;;;;;32.90;10.10;;;8.40;99.90;;;;;;4958359;28;48342;-76
2021/12/19 03:26:53;;;;;;;24.97;9.70;;;8.40;99.90;;;;;;4965385;28;38184;-75
2021/12/19 03:29:19;;;;;;;20.67;9.53;;;8.40;99.90;;;;;;4949498;28;38192;-75
2021/12/19 03:31:45;;;;;;;17.93;9.43;;;8.40;99.90;;;;;;4958302;28;38154;-76
2021/12/19 03:34:12;;;;;;;24.17;10.27;;;8.40;99.90;;;;;;4967928;28;40702;-75
2021/12/19 03:36:38;;;;;;;18.23;9.07;;;8.40;99.90;;;;;;4964671;28;39023;-76
2021/12/19 03:39:14;;;;;;;11.70;6.93;;;8.40;99.90;;;;;;4953809;28;38456;-76
2021/12/19 03:41:42;;;;;;;12.93;6.07;;;8.40;99.90;;;;;;4950391;28;36851;-76
2021/12/19 03:44:08;;;;;;;7.60;4.47;;;8.30;99.90;;;;;;4955975;28;38974;-76
2021/12/19 03:46:35;;;;;;;13.83;5.97;;;8.30;99.90;;;;;;4955085;28;39848;-75
2021/12/19 03:49:01;;;;;;;11.00;6.03;;;8.40;99.90;;;;;;4963203;28;42598;-76
2021/12/19 03:51:27;;;;;;;16.77;6.03;;;8.30;99.90;;;;;;4956994;28;47295;-76
2021/12/19 03:53:54;;;;;;;15.70;6.23;;;8.40;99.90;;;;;;4975532;28;39449;-77
2021/12/19 03:56:20;;;;;;;11.10;4.13;;;8.40;99.90;;;;;;4962455;28;39659;-76
2021/12/19 03:58:46;;;;;;;7.43;3.33;;;8.40;99.90;;;;;;4955141;28;38743;-76
2021/12/19 04:01:12;;;;;;;6.50;2.80;;;8.30;99.90;;;;;;4948513;28;38806;-76
2021/12/19 04:03:40;;;;;;;4.53;2.80;;;8.20;99.90;;;;;;4953618;28;40588;-76
2021/12/19 04:06:06;;;;;;;3.97;3.00;;;8.20;99.90;;;;;;4961856;28;40025;-76
2021/12/19 04:08:32;;;;;;;8.03;3.30;;;8.20;99.90;;;;;;4957556;28;39228;-76
2021/12/19 04:10:58;;;;;;;9.90;4.53;;;8.20;99.90;;;;;;4970062;28;37267;-75
2021/12/19 04:13:24;;;;;;;11.20;4.47;;;8.20;99.90;;;;;;4950410;28;38275;-76
2021/12/19 04:15:50;;;;;;;10.10;4.80;;;8.30;99.90;;;;;;4952911;28;37567;-76
2021/12/19 04:18:17;;;;;;;11.43;5.20;;;8.30;99.90;;;;;;4971683;28;40184;-76
2021/12/19 04:20:43;;;;;;;10.80;4.73;;;8.30;99.90;;;;;;4974142;28;38132;-75
2021/12/19 04:23:09;;;;;;;16.03;5.70;;;8.30;99.90;;;;;;4961312;28;39666;-76
2021/12/19 04:25:35;;;;;;;22.67;8.43;;;8.30;99.90;;;;;;4960508;28;38405;-76
2021/12/19 04:28:01;;;;;;;17.27;6.23;;;8.30;99.90;;;;;;4954392;28;38355;-76
2021/12/19 04:30:28;;;;;;;14.17;5.77;;;8.30;99.90;;;;;;4977534;28;47973;-76
2021/12/19 04:33:01;;;;;;;15.63;6.53;;;8.30;99.90;;;;;;4955651;28;39056;-76
2021/12/19 04:35:32;;;;;;;19.23;7.00;;;8.30;99.90;;;;;;4956776;28;39048;-76
2021/12/19 05:02:16;;;;;;;22.67;8.70;;;8.40;99.90;;;;;;4948689;28;38617;-77
2021/12/19 05:15:32;;;;;;;10.47;5.00;;;8.40;99.90;;;;;;4956941;28;49175;-76
2021/12/19 05:18:02;;;;;;;8.50;3.60;;;8.30;99.90;;;;;;4971597;28;35690;-75
2021/12/19 05:20:29;;;;;;;9.00;3.47;;;8.30;99.90;;;;;;4967756;28;46308;-75
2021/12/19 05:23:03;;;;;;;4.63;2.60;;;8.40;99.90;;;;;;4948896;28;37320;-76
2021/12/19 05:25:30;;;;;;;11.90;4.10;;;8.40;99.90;;;;;;4963853;28;47449;-76
2021/12/19 05:27:58;;;;;;;8.40;3.00;;;8.40;99.90;;;;;;4947557;28;38789;-76
2021/12/19 05:30:25;;;;;;;8.73;3.70;;;8.40;99.90;;;;;;4955549;28;38701;-75
2021/12/19 05:32:54;;;;;;;8.53;3.63;;;8.40;99.90;;;;;;4954760;28;39061;-76
2021/12/19 05:35:47;;;;;;;8.33;4.23;;;8.40;99.90;;;;;;4955683;28;38703;-76
2021/12/19 05:46:25;;;;;;;7.17;4.00;;;8.50;99.90;;;;;;4952029;28;39191;-76
2021/12/19 05:48:53;;;;;;;10.47;4.97;;;8.50;99.90;;;;;;4968264;28;37941;-78
2021/12/19 05:51:19;;;;;;;6.93;4.13;;;8.50;99.90;;;;;;4955399;28;38420;-76
2021/12/19 05:53:45;;;;;;;9.20;4.87;;;8.50;99.90;;;;;;4962472;28;38181;-76
2021/12/19 05:56:12;;;;;;;9.20;4.50;;;8.50;99.90;;;;;;4967697;28;39392;-76
2021/12/19 05:58:38;;;;;;;6.77;4.30;;;8.50;99.90;;;;;;4957830;28;39158;-77
2021/12/19 06:01:04;;;;;;;6.30;3.70;;;8.50;99.90;;;;;;4972587;28;39628;-77
2021/12/19 06:03:31;;;;;;;6.17;3.63;;;8.60;99.90;;;;;;4953599;28;38744;-76
2021/12/19 06:05:57;;;;;;;9.80;4.67;;;8.60;99.90;;;;;;4966485;28;39444;-76
2021/12/19 06:08:23;;;;;;;6.93;3.73;;;8.60;99.90;;;;;;4967732;28;37225;-76
2021/12/19 06:10:49;;;;;;;6.33;4.43;;;8.60;99.90;;;;;;4951043;28;39211;-76
2021/12/19 06:13:15;;;;;;;7.77;5.27;;;8.60;99.90;;;;;;4951279;28;37850;-76
2021/12/19 06:15:42;;;;;;;7.50;3.47;;;8.60;99.90;;;;;;4957665;28;38623;-76
2021/12/19 06:18:08;;;;;;;9.60;4.30;;;8.70;99.90;;;;;;4957894;28;39999;-76
2021/12/19 06:20:34;;;;;;;4.83;3.47;;;8.60;99.90;;;;;;4952359;28;39047;-74
2021/12/19 06:23:01;;;;;;;7.47;3.73;;;8.60;99.90;;;;;;4956672;28;38106;-76
2021/12/19 06:25:27;;;;;;;9.53;4.10;;;8.50;99.90;;;;;;4941666;28;40678;-75
2021/12/19 06:27:54;;;;;;;8.03;3.60;;;8.50;99.90;;;;;;4951490;28;39128;-76
2021/12/19 06:30:20;;;;;;;6.10;3.50;;;8.50;99.90;;;;;;4949398;28;39462;-75
2021/12/19 06:32:46;;;;;;;3.63;2.90;;;8.40;99.90;;;;;;4951725;28;35337;-76
2021/12/19 06:35:18;;;;;;;5.43;2.70;;;8.40;99.90;;;;;;4955002;28;38646;-75
2021/12/19 06:37:47;;;;;;;2.97;2.25;;;8.40;99.90;;;;;;4956868;28;39612;-76
2021/12/19 06:40:16;;;;;;;4.53;2.43;;;8.40;99.90;;;;;;4957711;28;39225;-76
2021/12/19 06:42:42;;;;;;;2.10;1.77;;;8.50;99.90;;;;;;4966602;28;37900;-75
2021/12/19 06:45:09;;;;;;;3.70;1.97;;;8.50;99.90;;;;;;4951625;28;38742;-75
2021/12/19 06:47:36;;;;;;;5.70;2.23;;;8.50;99.90;;;;;;4948862;28;38812;-76
2021/12/19 06:50:03;;;;;;;3.30;1.63;;;8.50;99.90;;;;;;4973376;28;39821;-75
2021/12/19 06:52:30;;;;;;;5.00;2.27;;;8.50;99.90;;;;;;4968436;28;39029;-76
2021/12/19 06:54:56;;;;;;;2.47;1.90;;;8.50;99.90;;;;;;4946404;28;40556;-75
2021/12/19 06:57:22;;;;;;;2.83;1.63;;;8.50;99.90;;;;;;4946934;28;39098;-75
2021/12/19 06:59:48;;;;;;;3.47;1.77;;;8.50;99.90;;;;;;4957510;28;38082;-76
2021/12/19 07:02:16;;;;;;;2.90;1.80;;;8.50;99.90;;;;;;4956414;28;36477;-75
2021/12/19 07:04:44;;;;;;;3.90;2.23;;;8.50;99.90;;;;;;4951640;28;39432;-75
2021/12/19 07:07:10;;;;;;;3.33;2.20;;;8.50;99.90;;;;;;4947161;28;41996;-75
2021/12/19 07:09:36;;;;;;;2.87;1.80;;;8.50;99.90;;;;;;4949216;28;38174;-75
2021/12/19 07:12:03;;;;;;;6.07;1.93;;;8.40;99.90;;;;;;4943376;28;37314;-75
2021/12/19 07:14:29;;;;;;;4.13;1.93;;;8.50;99.90;;;;;;4956676;28;37383;-75
2021/12/19 07:16:55;;;;;;;5.80;2.03;;;8.50;99.90;;;;;;4953033;28;39769;-74
2021/12/19 07:19:21;;;;;;;2.67;1.70;;;8.60;99.90;;;;;;4956539;28;38642;-76
2021/12/19 07:21:47;;;;;;;5.40;2.97;;;8.60;99.90;;;;;;4973866;28;38784;-75
2021/12/19 07:24:14;;;;;;;7.83;3.37;;;8.60;99.90;;;;;;4957259;28;39742;-76
2021/12/19 07:26:40;;;;;;;4.07;2.70;;;8.60;99.90;;;;;;4960084;28;39881;-77
2021/12/19 07:29:06;;;;;;;5.07;3.03;;;8.60;99.90;;;;;;4957010;28;38585;-76
2021/12/19 07:31:36;;;;;;;5.90;3.17;;;8.70;99.90;;;;;;4968771;28;37622;-74
2021/12/19 07:34:04;;;;;;;7.57;3.93;;;8.70;99.90;;;;;;4971546;28;40550;-75
2021/12/19 07:36:54;;;;;;;6.63;3.87;;;8.70;99.90;;;;;;4956515;28;39366;-74
2021/12/19 07:39:27;;;;;;;7.13;3.50;;;8.70;99.90;;;;;;4955745;28;38075;-75
2021/12/19 07:41:53;;;;;;;10.73;4.60;;;8.60;99.90;;;;;;4954369;28;36804;-76
2021/12/19 07:44:19;;;;;;;6.07;3.80;;;8.60;99.90;;;;;;4952411;28;41765;-75
2021/12/19 07:46:45;;;;;;;7.43;3.77;;;8.60;99.90;;;;;;4970595;28;40300;-75
2021/12/19 07:49:12;;;;;;;8.33;5.10;;;8.70;99.90;;;;;;4975263;28;39132;-77
2021/12/19 07:51:38;;;;;;;8.83;4.50;;;8.70;99.90;;;;;;4955659;28;37611;-76
2021/12/19 07:54:04;;;;;;;5.13;3.10;;;8.60;99.90;;;;;;4956240;28;39258;-75
2021/12/19 07:56:31;;;;;;;6.97;3.83;;;8.60;99.90;;;;;;4964628;28;39159;-75
2021/12/19 07:58:57;;;;;;;7.90;3.97;;;8.60;99.90;;;;;;4952113;28;38263;-75
2021/12/19 08:01:23;;;;;;;6.03;3.70;;;8.70;99.90;;;;;;4946661;28;38215;-77
2021/12/19 08:03:49;;;;;;;7.13;4.33;;;8.70;99.90;;;;;;4948381;28;38251;-75
2021/12/19 08:06:15;;;;;;;8.40;4.93;;;8.70;99.90;;;;;;4950689;28;39244;-77
2021/12/19 08:08:47;;;;;;;8.17;4.63;;;8.70;99.90;;;;;;4947479;28;38452;-75
2021/12/19 08:13:58;;;;;;;8.37;5.57;;;8.60;99.90;;;;;;4953144;28;39905;-75
2021/12/19 08:16:24;;;;;;;8.63;4.43;;;8.70;99.90;;;;;;4953350;28;38489;-76
2021/12/19 08:18:52;;;;;;;8.60;4.10;;;8.70;99.90;;;;;;4954572;28;38760;-75
2021/12/19 08:21:19;;;;;;;5.10;3.77;;;8.70;99.90;;;;;;4949503;28;37281;-76
2021/12/19 08:23:46;;;;;;;7.33;3.20;;;8.60;99.90;;;;;;4957120;28;40729;-75
2021/12/19 08:26:12;;;;;;;5.23;3.10;;;8.60;99.90;;;;;;4951553;28;38710;-75
2021/12/19 08:28:39;;;;;;;2.73;2.40;;;8.60;99.90;;;;;;4953351;28;38740;-75
2021/12/19 08:31:05;;;;;;;3.97;2.47;;;8.60;99.90;;;;;;4962466;28;37673;-76
2021/12/19 08:33:32;;;;;;;3.67;2.63;;;8.60;99.90;;;;;;4950101;28;40069;-75
2021/12/19 08:36:02;;;;;;;3.57;2.43;;;8.60;99.90;;;;;;4954014;28;39981;-76
2021/12/19 08:38:28;;;;;;;5.77;3.37;;;8.60;99.90;;;;;;4959829;28;47347;-76
2021/12/19 08:40:55;;;;;;;3.43;2.80;;;8.70;99.90;;;;;;4948525;28;35890;-78
2021/12/19 08:43:21;;;;;;;4.03;3.20;;;8.70;99.90;;;;;;4963378;28;39625;-76
2021/12/19 08:45:48;;;;;;;5.27;3.07;;;8.80;99.90;;;;;;4950181;28;39022;-77
2021/12/19 08:48:14;;;;;;;5.33;2.70;;;8.80;99.90;;;;;;4969969;28;40446;-75
2021/12/19 08:50:40;;;;;;;3.13;2.07;;;8.80;99.90;;;;;;4954155;28;37290;-76
2021/12/19 08:53:06;;;;;;;5.80;2.70;;;8.80;99.90;;;;;;4960095;28;41039;-77
2021/12/19 08:55:33;;;;;;;6.73;3.67;;;8.80;99.90;;;;;;4962053;28;39585;-76
2021/12/19 08:57:59;;;;;;;5.90;3.90;;;8.90;99.90;;;;;;4959444;28;40286;-76
2021/12/19 09:00:25;;;;;;;5.60;4.00;;;8.80;99.90;;;;;;4973445;28;37906;-75
2021/12/19 09:02:55;;;;;;;4.40;3.17;;;8.80;99.90;;;;;;4954465;28;39198;-76
2021/12/19 09:05:22;;;;;;;7.73;3.43;;;8.80;99.90;;;;;;4954291;28;38828;-76
2021/12/19 09:07:50;;;;;;;7.07;4.27;;;8.90;99.90;;;;;;4961882;28;39158;-76
2021/12/19 09:10:17;;;;;;;6.73;4.20;;;8.90;99.90;;;;;;4955355;28;37929;-76
2021/12/19 09:12:43;;;;;;;10.20;5.10;;;8.90;99.90;;;;;;4954328;28;38573;-76
2021/12/19 09:15:09;;;;;;;6.03;4.20;;;9.00;99.90;;;;;;4955515;28;40249;-75
2021/12/19 09:17:35;;;;;;;6.63;4.97;;;9.00;99.90;;;;;;4953646;28;39331;-76
2021/12/19 09:20:03;;;;;;;8.23;5.00;;;9.10;99.90;;;;;;4952035;28;37193;-76
2021/12/19 09:22:30;;;;;;;8.87;5.87;;;9.00;99.90;;;;;;4965229;28;37746;-75
2021/12/19 09:24:56;;;;;;;8.13;3.90;;;9.10;99.90;;;;;;4957446;28;38351;-76
2021/12/19 09:27:22;;;;;;;5.90;3.80;;;9.20;99.90;;;;;;4954597;28;37550;-76
2021/12/19 09:29:48;;;;;;;3.40;2.80;;;9.20;99.90;;;;;;4949671;28;37366;-77
2021/12/19 09:32:14;;;;;;;4.73;3.43;;;9.20;99.90;;;;;;4951483;28;38338;-76
2021/12/19 09:34:41;;;;;;;6.13;3.90;;;9.30;99.90;;;;;;4964872;28;36720;-77
2021/12/19 09:37:07;;;;;;;5.83;3.27;;;9.30;99.90;;;;;;4960045;28;38363;-76
2021/12/19 09:39:33;;;;;;;5.50;2.90;;;9.30;99.90;;;;;;4973519;28;39210;-76
2021/12/19 09:42:07;;;;;;;3.47;2.77;;;9.30;99.90;;;;;;4963681;28;38556;-77
2021/12/19 09:44:34;;;;;;;2.60;2.20;;;9.20;99.90;;;;;;4962748;28;47499;-76
2021/12/19 09:47:01;;;;;;;3.17;2.83;;;9.30;99.90;;;;;;4963964;28;37629;-78
2021/12/19 09:49:27;;;;;;;5.47;2.70;;;9.30;99.90;;;;;;4967607;28;47332;-77
2021/12/19 09:51:54;;;;;;;4.73;3.53;;;9.30;99.90;;;;;;4965916;28;40396;-77
2021/12/19 09:54:20;;;;;;;5.47;3.23;;;9.30;99.90;;;;;;4978641;28;37961;-76
2021/12/19 09:56:49;;;;;;;3.87;3.13;;;9.30;99.90;;;;;;4962261;28;38750;-78
2021/12/19 09:59:19;;;;;;;2.60;2.20;;;9.20;99.90;;;;;;4965361;28;39441;-76
2021/12/19 10:01:47;;;;;;;5.30;2.40;;;9.30;99.90;;;;;;4959442;28;39431;-75
2021/12/19 10:04:37;;;;;;;4.80;2.10;;;9.30;99.90;;;;;;4970049;28;38604;-74
2021/12/19 10:07:14;;;;;;;4.37;2.13;;;9.40;99.90;;;;;;4966896;28;39237;-75
2021/12/19 10:10:00;;;;;;;2.93;1.70;;;9.40;99.90;;;;;;4951960;28;36825;-75
2021/12/19 10:15:10;;;;;;;3.37;2.47;;;9.40;99.90;;;;;;4952772;28;39938;-75
2021/12/19 10:17:38;;;;;;;3.30;1.80;;;9.50;99.90;;;;;;4959665;28;46457;-75
2021/12/19 10:20:07;;;;;;;2.83;1.50;;;9.50;99.90;;;;;;4951760;28;37244;-75
2021/12/19 10:22:40;;;;;;;1.83;1.20;;;9.50;99.90;;;;;;4957945;28;47774;-74
2021/12/19 10:25:21;;;;;;;2.60;1.40;;;9.40;99.90;;;;;;4958876;28;40417;-74
2021/12/19 10:27:56;;;;;;;4.13;1.40;;;9.50;99.90;;;;;;4976507;28;39169;-76
2021/12/19 10:30:32;;;;;;;3.30;1.13;;;9.40;99.90;;;;;;4955134;28;37104;-76
2021/12/19 10:33:08;;;;;;;2.57;1.10;;;9.40;99.90;;;;;;4961042;28;39854;-75
2021/12/19 10:35:50;;;;;;;2.27;1.00;;;9.40;99.90;;;;;;4967289;28;47094;-75
2021/12/19 10:38:32;;;;;;;0.50;0.50;;;9.40;99.90;;;;;;4970991;28;39142;-76
2021/12/19 10:41:12;;;;;;;4.63;0.98;;;9.50;99.90;;;;;;4959162;28;37249;-77
2021/12/19 10:43:58;;;;;;;2.27;0.80;;;9.40;99.90;;;;;;4956063;28;48683;-76
2021/12/19 10:46:35;;;;;;;2.33;1.10;;;9.50;99.90;;;;;;4953056;28;40398;-75
2021/12/19 10:49:03;;;;;;;4.53;1.53;;;9.50;99.90;;;;;;4957359;28;38887;-76
2021/12/19 10:51:33;;;;;;;2.23;1.33;;;9.50;99.90;;;;;;4961300;28;38523;-76
2021/12/19 10:54:00;;;;;;;1.50;1.40;;;9.60;99.90;;;;;;4960730;28;39780;-77
2021/12/19 10:56:29;;;;;;;3.13;1.43;;;9.50;99.90;;;;;;4953822;28;40083;-76
2021/12/19 10:58:59;;;;;;;2.60;1.30;;;9.40;99.90;;;;;;4958491;28;38075;-76
2021/12/19 11:01:35;;;;;;;4.43;1.37;;;9.40;99.90;;;;;;4961640;28;37494;-76
2021/12/19 11:04:03;;;;;;;2.17;1.20;;;9.40;99.90;;;;;;4954230;28;38786;-75
2021/12/19 11:06:38;;;;;;;2.00;1.20;;;9.40;99.90;;;;;;4957851;28;48274;-76
2021/12/19 11:09:19;;;;;;;1.80;1.47;;;9.50;99.90;;;;;;4955367;28;39261;-76
2021/12/19 11:11:49;;;;;;;1.50;0.90;;;9.60;99.90;;;;;;4955109;28;37919;-76
2021/12/19 11:14:20;;;;;;;4.07;1.40;;;9.60;99.90;;;;;;4956040;28;37865;-77
2021/12/19 11:16:48;;;;;;;2.67;1.50;;;9.70;99.90;;;;;;4957951;28;37992;-76
2021/12/19 11:19:16;;;;;;;1.73;1.13;;;9.70;99.90;;;;;;4961704;28;20076;-76
2021/12/19 11:21:42;;;;;;;3.43;0.80;;;9.70;99.90;;;;;;4958588;28;37668;-76
2021/12/19 11:24:12;;;;;;;2.50;1.10;;;9.70;99.90;;;;;;4962233;28;40285;-76
2021/12/19 11:26:40;;;;;;;1.30;1.00;;;9.60;99.90;;;;;;4953973;28;39268;-75
2021/12/19 11:29:08;;;;;;;1.73;0.73;;;9.60;99.90;;;;;;4958704;28;38596;-77
2021/12/19 11:31:35;;;;;;;2.33;1.00;;;9.60;99.90;;;;;;4961276;28;39484;-76
2021/12/19 11:34:14;;;;;;;1.93;1.07;;;9.60;99.90;;;;;;4962219;28;39861;-75
2021/12/19 11:36:44;;;;;;;4.17;1.53;;;9.60;99.90;;;;;;4959710;28;49215;-75
2021/12/19 11:39:12;;;;;;;3.50;2.00;;;9.60;99.90;;;;;;4971905;28;39154;-76
2021/12/19 11:41:39;;;;;;;5.23;2.13;;;9.60;99.90;;;;;;4949892;28;37424;-75
2021/12/19 11:44:08;;;;;;;7.63;2.50;;;9.60;99.90;;;;;;4953230;28;39038;-75
2021/12/19 11:46:49;;;;;;;5.77;2.47;;;9.60;99.90;;;;;;4953299;28;40144;-75
2021/12/19 11:49:26;;;;;;;4.90;2.93;;;9.60;99.90;;;;;;4967390;28;39396;-74
2021/12/19 11:52:23;;;;;;;7.40;2.97;;;9.70;99.90;;;;;;4958952;28;36366;-76
2021/12/19 11:55:14;;;;;;;4.23;2.97;;;9.70;99.90;;;;;;4965605;28;47272;-76
2021/12/19 11:57:41;;;;;;;6.63;3.07;;;9.70;99.90;;;;;;4944923;28;49125;-75
2021/12/19 12:00:31;;;;;;;8.37;3.20;;;9.70;99.90;;;;;;4954298;28;37494;-76
2021/12/19 12:03:12;;;;;;;8.20;3.93;;;9.70;99.90;;;;;;4976255;28;38747;-76
2021/12/19 12:05:46;;;;;;;9.87;4.30;;;9.80;99.90;;;;;;4956126;28;47204;-75
2021/12/19 12:08:21;;;;;;;18.90;10.53;;;9.80;99.90;;;;;;4956829;28;39179;-76
2021/12/19 12:11:08;;;;;;;7.40;3.73;;;9.80;99.90;;;;;;4958616;28;37263;-76
2021/12/19 12:13:42;;;;;;;8.37;3.93;;;9.70;99.90;;;;;;4976510;28;47364;-75
2021/12/19 12:18:40;;;;;;;10.30;3.60;;;9.70;99.90;;;;;;4958026;28;39066;-76
2021/12/19 12:24:17;;;;;;;10.93;3.57;;;9.70;99.90;;;;;;4949134;28;37728;-75
2021/12/19 12:26:59;;;;;;;11.35;3.95;;;9.80;99.90;;;;;;4956639;28;48795;-76
2021/12/19 12:29:25;;;;;;;12.80;3.83;;;9.80;99.90;;;;;;4967045;28;36756;-76
2021/12/19 12:31:53;;;;;;;9.37;2.67;;;9.70;99.90;;;;;;4955700;28;38597;-75
2021/12/19 12:34:20;;;;;;;13.83;3.97;;;9.70;99.90;;;;;;4957029;28;36444;-75
2021/12/19 12:36:46;;;;;;;11.13;3.03;;;9.70;99.90;;;;;;4955453;28;39447;-76
2021/12/19 12:39:22;;;;;;;7.63;2.50;;;9.70;99.90;;;;;;4953194;28;37590;-75
2021/12/19 12:41:59;;;;;;;17.30;3.00;;;9.70;99.90;;;;;;4952359;28;37218;-75
2021/12/19 12:44:26;;;;;;;9.20;2.80;;;9.70;99.90;;;;;;4953693;28;37123;-75
2021/12/19 12:46:52;;;;;;;9.40;2.50;;;9.70;99.90;;;;;;4953344;28;37295;-76
2021/12/19 12:49:19;;;;;;;10.30;2.87;;;9.70;99.90;;;;;;4950947;28;38769;-76
2021/12/19 12:51:58;;;;;;;14.70;2.90;;;9.70;99.90;;;;;;4951661;28;37188;-76
2021/12/19 12:54:30;;;;;;;12.80;2.87;;;9.70;99.90;;;;;;4954868;28;38188;-75
2021/12/19 12:56:59;;;;;;;8.77;3.00;;;9.70;99.90;;;;;;4948832;28;38803;-75
2021/12/19 12:59:31;;;;;;;10.40;3.27;;;9.70;99.90;;;;;;4966326;28;38310;-75
2021/12/19 13:02:14;;;;;;;13.52;2.90;;;9.70;99.90;;;;;;4954642;28;38487;-76
2021/12/19 13:04:51;;;;;;;9.93;2.83;;;9.80;99.90;;;;;;4951900;28;49100;-75
2021/12/19 13:07:23;;;;;;;7.13;2.80;;;9.80;99.90;;;;;;4952927;28;39195;-75
2021/12/19 13:09:54;;;;;;;9.70;2.83;;;9.70;99.90;;;;;;4963382;28;37739;-75
2021/12/19 13:12:23;;;;;;;10.53;3.00;;;9.80;99.90;;;;;;4961677;28;37709;-76
2021/12/19 13:14:56;;;;;;;10.43;2.50;;;9.70;99.90;;;;;;4958932;28;36273;-75
2021/12/19 13:17:37;;;;;;;10.13;2.63;;;9.70;99.90;;;;;;4953125;28;38486;-76
2021/12/19 13:20:08;;;;;;;3.93;1.77;;;9.60;99.90;;;;;;4953890;28;37586;-73
2021/12/19 13:22:35;;;;;;;12.03;2.60;;;9.60;99.90;;;;;;4952448;28;48877;-74
2021/12/19 13:25:25;;;;;;;12.40;2.70;;;9.60;99.90;;;;;;4959644;28;35724;-75
2021/12/19 13:27:56;;;;;;;7.63;2.50;;;9.50;99.90;;;;;;4955700;28;47209;-74
2021/12/19 13:30:29;;;;;;;10.37;2.40;;;9.40;99.90;;;;;;4954008;28;38560;-75
2021/12/19 13:32:58;;;;;;;8.67;2.43;;;9.30;99.90;;;;;;4951812;28;38435;-75
2021/12/19 13:35:32;;;;;;;5.63;2.70;;;9.30;99.90;;;;;;4952955;28;37058;-74
2021/12/19 13:38:16;;;;;;;14.00;2.63;;;9.30;99.90;;;;;;4966819;28;39358;-74
2021/12/19 13:40:52;;;;;;;7.10;2.53;;;9.20;99.90;;;;;;4967251;28;47218;-74
2021/12/19 13:43:21;;;;;;;9.60;2.00;;;9.20;99.90;;;;;;4951681;28;38332;-75
2021/12/19 13:45:50;;;;;;;8.00;2.40;;;9.20;99.90;;;;;;4952043;28;37264;-75
2021/12/19 13:48:19;;;;;;;3.10;1.10;;;9.10;99.90;;;;;;4953316;28;39868;-79
2021/12/19 13:50:49;;;;;;;9.63;1.10;;;9.10;99.90;;;;;;4953404;28;39676;-75
2021/12/19 13:53:17;;;;;;;5.50;1.77;;;9.10;99.90;;;;;;4960625;28;38750;-76
2021/12/19 13:55:52;;;;;;;9.40;1.97;;;9.10;99.90;;;;;;4960979;28;36810;-75
2021/12/19 13:58:19;;;;;;;4.93;1.40;;;9.10;99.90;;;;;;4958727;28;38447;-75
2021/12/19 14:00:51;;;;;;;6.33;1.53;;;9.10;99.90;;;;;;4954792;28;38244;-75
2021/12/19 14:03:35;;;;;;;5.70;1.70;;;9.10;99.90;;;;;;4960534;28;38448;-75
2021/12/19 14:06:02;;;;;;;6.90;2.30;;;9.10;99.90;;;;;;4957315;28;37509;-77
2021/12/19 14:08:31;;;;;;;13.63;2.80;;;9.10;99.90;;;;;;4957463;28;37627;-76
2021/12/19 14:11:18;;;;;;;13.37;2.60;;;9.10;99.90;;;;;;4971959;28;37213;-76
2021/12/19 14:13:58;;;;;;;12.23;2.60;;;9.10;99.90;;;;;;4958073;28;47306;-75
2021/12/19 14:16:30;;;;;;;8.70;1.90;;;9.10;99.90;;;;;;4981827;28;37794;-75
2021/12/19 14:18:56;;;;;;;8.15;2.20;;;9.10;99.90;;;;;;4960422;28;39786;-74